Terminal Aerodrome Forecast
Issued by NWS

Home | Current Version | Previous Version | Text Only | Print | Product List | Glossary On
Versions: 1 2 3 4 5 6 7 8 9 10 11 12 13 14 15 16 17 18 19
000
FTUS42 KMLB 260530
TAFTIX
TAF
KTIX 260530Z 2606/2706 27006KT P6SM SKC
     FM261500 32007KT P6SM FEW030
     FM261900 05010KT P6SM SKC
     FM270000 12004KT P6SM SKC
      AMD NOT SKED TIL 261100=

USA.gov is the U.S. government's official web portal to all federal, state and local government web resources and services.